sensor_id;sensor_type;location;lat;lon;timestamp;temperature;humidity
26107;DHT22;13866;50.748;12.630;2024-02-16T00:02:16;6.00;99.90
26107;DHT22;13866;50.748;12.630;2024-02-16T00:04:41;6.10;99.90
26107;DHT22;13866;50.748;12.630;2024-02-16T00:07:07;6.00;99.90
26107;DHT22;13866;50.748;12.630;2024-02-16T00:09:32;6.00;99.90
26107;DHT22;13866;50.748;12.630;2024-02-16T00:11:58;6.00;99.90
26107;DHT22;13866;50.748;12.630;2024-02-16T00:14:24;6.00;99.90
26107;DHT22;13866;50.748;12.630;2024-02-16T00:16:49;5.90;99.90
26107;DHT22;13866;50.748;12.630;2024-02-16T00:19:15;5.90;99.90
26107;DHT22;13866;50.748;12.630;2024-02-16T00:21:40;5.90;99.90
26107;DHT22;13866;50.748;12.630;2024-02-16T00:24:08;5.90;99.90
26107;DHT22;13866;50.748;12.630;2024-02-16T00:26:33;5.90;99.90
26107;DHT22;13866;50.748;12.630;2024-02-16T00:28:58;5.90;99.90
26107;DHT22;13866;50.748;12.630;2024-02-16T00:31:24;5.80;99.90
26107;DHT22;13866;50.748;12.630;2024-02-16T00:33:49;6.00;99.90
26107;DHT22;13866;50.748;12.630;2024-02-16T00:36:15;5.90;99.90
26107;DHT22;13866;50.748;12.630;2024-02-16T00:38:40;5.90;99.90
26107;DHT22;13866;50.748;12.630;2024-02-16T00:41:06;5.80;99.90
26107;DHT22;13866;50.748;12.630;2024-02-16T00:43:32;5.70;99.90
26107;DHT22;13866;50.748;12.630;2024-02-16T00:45:58;5.70;99.90
26107;DHT22;13866;50.748;12.630;2024-02-16T00:48:24;5.70;99.90
26107;DHT22;13866;50.748;12.630;2024-02-16T00:50:49;5.70;99.90
26107;DHT22;13866;50.748;12.630;2024-02-16T00:53:15;5.70;99.90
26107;DHT22;13866;50.748;12.630;2024-02-16T00:55:40;5.70;99.90
26107;DHT22;13866;50.748;12.630;2024-02-16T00:58:07;5.60;99.90
26107;DHT22;13866;50.748;12.630;2024-02-16T01:00:32;5.60;99.90
26107;DHT22;13866;50.748;12.630;2024-02-16T01:02:58;5.60;99.90
26107;DHT22;13866;50.748;12.630;2024-02-16T01:05:23;5.60;99.90
26107;DHT22;13866;50.748;12.630;2024-02-16T01:07:49;5.60;99.90
26107;DHT22;13866;50.748;12.630;2024-02-16T01:10:14;5.60;99.90
26107;DHT22;13866;50.748;12.630;2024-02-16T01:12:40;5.60;99.90
26107;DHT22;13866;50.748;12.630;2024-02-16T01:15:06;5.60;99.90
26107;DHT22;13866;50.748;12.630;2024-02-16T01:17:32;5.60;99.90
26107;DHT22;13866;50.748;12.630;2024-02-16T01:19:58;5.60;99.90
26107;DHT22;13866;50.748;12.630;2024-02-16T01:22:24;5.60;99.90
26107;DHT22;13866;50.748;12.630;2024-02-16T01:24:49;5.60;99.90
26107;DHT22;13866;50.748;12.630;2024-02-16T01:27:15;5.60;99.90
26107;DHT22;13866;50.748;12.630;2024-02-16T01:29:41;5.60;99.90
26107;DHT22;13866;50.748;12.630;2024-02-16T01:32:07;5.60;99.90
26107;DHT22;13866;50.748;12.630;2024-02-16T01:34:32;5.60;99.90
26107;DHT22;13866;50.748;12.630;2024-02-16T01:36:58;5.60;99.90
26107;DHT22;13866;50.748;12.630;2024-02-16T01:39:24;5.60;99.90
26107;DHT22;13866;50.748;12.630;2024-02-16T01:41:49;5.60;99.90
26107;DHT22;13866;50.748;12.630;2024-02-16T01:44:15;5.60;99.90
26107;DHT22;13866;50.748;12.630;2024-02-16T01:46:42;5.60;99.90
26107;DHT22;13866;50.748;12.630;2024-02-16T01:49:08;5.80;99.90
26107;DHT22;13866;50.748;12.630;2024-02-16T01:51:35;5.80;99.90
26107;DHT22;13866;50.748;12.630;2024-02-16T01:54:01;5.80;99.90
26107;DHT22;13866;50.748;12.630;2024-02-16T01:56:27;5.90;99.90
26107;DHT22;13866;50.748;12.630;2024-02-16T01:58:53;6.00;99.90
26107;DHT22;13866;50.748;12.630;2024-02-16T02:01:18;6.10;99.90
26107;DHT22;13866;50.748;12.630;2024-02-16T02:03:44;6.20;99.90
26107;DHT22;13866;50.748;12.630;2024-02-16T02:06:09;6.30;99.90
26107;DHT22;13866;50.748;12.630;2024-02-16T02:08:35;6.30;99.90
26107;DHT22;13866;50.748;12.630;2024-02-16T02:11:00;6.20;99.90
26107;DHT22;13866;50.748;12.630;2024-02-16T02:13:27;6.20;99.90
26107;DHT22;13866;50.748;12.630;2024-02-16T02:15:53;6.20;99.90
26107;DHT22;13866;50.748;12.630;2024-02-16T02:18:19;6.20;99.90
26107;DHT22;13866;50.748;12.630;2024-02-16T02:20:44;6.10;99.90
26107;DHT22;13866;50.748;12.630;2024-02-16T02:23:10;6.20;99.90
26107;DHT22;13866;50.748;12.630;2024-02-16T02:25:35;6.20;99.90
26107;DHT22;13866;50.748;12.630;2024-02-16T02:28:02;6.20;99.90
26107;DHT22;13866;50.748;12.630;2024-02-16T02:30:28;6.20;99.90
26107;DHT22;13866;50.748;12.630;2024-02-16T02:32:53;6.30;99.90
26107;DHT22;13866;50.748;12.630;2024-02-16T02:35:19;6.30;99.90
26107;DHT22;13866;50.748;12.630;2024-02-16T02:37:45;6.20;99.90
26107;DHT22;13866;50.748;12.630;2024-02-16T02:40:10;6.20;99.90
26107;DHT22;13866;50.748;12.630;2024-02-16T02:42:36;6.20;99.90
26107;DHT22;13866;50.748;12.630;2024-02-16T02:45:02;6.10;99.90
26107;DHT22;13866;50.748;12.630;2024-02-16T02:47:28;6.10;99.90
26107;DHT22;13866;50.748;12.630;2024-02-16T02:49:53;6.10;99.90
26107;DHT22;13866;50.748;12.630;2024-02-16T02:52:20;6.10;99.90
26107;DHT22;13866;50.748;12.630;2024-02-16T02:54:46;6.10;99.90
26107;DHT22;13866;50.748;12.630;2024-02-16T02:57:11;6.10;99.90
26107;DHT22;13866;50.748;12.630;2024-02-16T02:59:37;6.10;99.90
26107;DHT22;13866;50.748;12.630;2024-02-16T03:02:03;6.10;99.90
26107;DHT22;13866;50.748;12.630;2024-02-16T03:04:28;6.20;99.90
26107;DHT22;13866;50.748;12.630;2024-02-16T03:06:54;6.10;99.90
26107;DHT22;13866;50.748;12.630;2024-02-16T03:09:19;6.10;99.90
26107;DHT22;13866;50.748;12.630;2024-02-16T03:11:45;6.10;99.90
26107;DHT22;13866;50.748;12.630;2024-02-16T03:14:10;6.20;99.90
26107;DHT22;13866;50.748;12.630;2024-02-16T03:16:36;6.10;99.90
26107;DHT22;13866;50.748;12.630;2024-02-16T03:19:01;6.10;99.90
26107;DHT22;13866;50.748;12.630;2024-02-16T03:21:26;6.10;99.90
26107;DHT22;13866;50.748;12.630;2024-02-16T03:23:52;6.10;99.90
26107;DHT22;13866;50.748;12.630;2024-02-16T03:26:19;6.10;99.90
26107;DHT22;13866;50.748;12.630;2024-02-16T03:28:46;6.10;99.90
26107;DHT22;13866;50.748;12.630;2024-02-16T03:31:20;6.10;99.90
26107;DHT22;13866;50.748;12.630;2024-02-16T03:33:47;6.10;99.90
26107;DHT22;13866;50.748;12.630;2024-02-16T03:36:13;6.10;99.90
26107;DHT22;13866;50.748;12.630;2024-02-16T03:38:46;6.20;99.90
26107;DHT22;13866;50.748;12.630;2024-02-16T03:41:19;6.20;99.90
26107;DHT22;13866;50.748;12.630;2024-02-16T03:43:45;6.20;99.90
26107;DHT22;13866;50.748;12.630;2024-02-16T03:46:10;6.30;99.90
26107;DHT22;13866;50.748;12.630;2024-02-16T03:48:36;6.30;99.90
26107;DHT22;13866;50.748;12.630;2024-02-16T03:51:02;6.30;99.90
26107;DHT22;13866;50.748;12.630;2024-02-16T03:53:28;6.30;99.90
26107;DHT22;13866;50.748;12.630;2024-02-16T03:55:54;6.30;99.90
26107;DHT22;13866;50.748;12.630;2024-02-16T03:58:19;6.30;99.90
26107;DHT22;13866;50.748;12.630;2024-02-16T04:00:45;6.30;99.90
26107;DHT22;13866;50.748;12.630;2024-02-16T04:03:10;6.30;99.90
26107;DHT22;13866;50.748;12.630;2024-02-16T04:05:38;6.40;99.90
26107;DHT22;13866;50.748;12.630;2024-02-16T04:08:04;6.40;99.90
26107;DHT22;13866;50.748;12.630;2024-02-16T04:10:31;6.40;99.90
26107;DHT22;13866;50.748;12.630;2024-02-16T04:12:57;6.30;99.90
26107;DHT22;13866;50.748;12.630;2024-02-16T04:15:22;6.30;99.90
26107;DHT22;13866;50.748;12.630;2024-02-16T04:17:48;6.40;99.90
26107;DHT22;13866;50.748;12.630;2024-02-16T04:20:15;6.40;99.90
26107;DHT22;13866;50.748;12.630;2024-02-16T04:22:41;6.40;99.90
26107;DHT22;13866;50.748;12.630;2024-02-16T04:25:07;6.40;99.90
26107;DHT22;13866;50.748;12.630;2024-02-16T04:27:34;6.50;99.90
26107;DHT22;13866;50.748;12.630;2024-02-16T04:30:00;6.30;99.90
26107;DHT22;13866;50.748;12.630;2024-02-16T04:32:25;6.30;99.90
26107;DHT22;13866;50.748;12.630;2024-02-16T04:34:51;6.30;99.90
26107;DHT22;13866;50.748;12.630;2024-02-16T04:37:23;6.40;99.90
26107;DHT22;13866;50.748;12.630;2024-02-16T04:39:49;6.50;99.90
26107;DHT22;13866;50.748;12.630;2024-02-16T04:42:14;6.50;99.90
26107;DHT22;13866;50.748;12.630;2024-02-16T04:44:40;6.40;99.90
26107;DHT22;13866;50.748;12.630;2024-02-16T04:47:05;6.40;99.90
26107;DHT22;13866;50.748;12.630;2024-02-16T04:49:31;6.40;99.90
26107;DHT22;13866;50.748;12.630;2024-02-16T04:51:56;6.40;99.90
26107;DHT22;13866;50.748;12.630;2024-02-16T04:54:22;6.40;99.90
26107;DHT22;13866;50.748;12.630;2024-02-16T04:56:48;6.50;99.90
26107;DHT22;13866;50.748;12.630;2024-02-16T04:59:15;6.70;99.90
26107;DHT22;13866;50.748;12.630;2024-02-16T05:01:40;6.80;99.90
26107;DHT22;13866;50.748;12.630;2024-02-16T05:04:06;7.00;99.90
26107;DHT22;13866;50.748;12.630;2024-02-16T05:06:32;7.00;99.90
26107;DHT22;13866;50.748;12.630;2024-02-16T05:08:57;7.10;99.90
26107;DHT22;13866;50.748;12.630;2024-02-16T05:11:23;7.10;99.90
26107;DHT22;13866;50.748;12.630;2024-02-16T05:13:50;7.10;99.90
26107;DHT22;13866;50.748;12.630;2024-02-16T05:16:15;7.00;99.90
26107;DHT22;13866;50.748;12.630;2024-02-16T05:18:42;6.90;99.90
26107;DHT22;13866;50.748;12.630;2024-02-16T05:21:08;6.90;99.90
26107;DHT22;13866;50.748;12.630;2024-02-16T05:23:35;6.90;99.90
26107;DHT22;13866;50.748;12.630;2024-02-16T05:26:00;6.90;99.90
26107;DHT22;13866;50.748;12.630;2024-02-16T05:28:26;6.80;99.90
26107;DHT22;13866;50.748;12.630;2024-02-16T05:30:52;6.80;99.90
26107;DHT22;13866;50.748;12.630;2024-02-16T05:33:17;6.70;99.90
26107;DHT22;13866;50.748;12.630;2024-02-16T05:35:43;6.70;99.90
26107;DHT22;13866;50.748;12.630;2024-02-16T05:38:10;6.70;99.90
26107;DHT22;13866;50.748;12.630;2024-02-16T05:40:57;6.60;99.90
26107;DHT22;13866;50.748;12.630;2024-02-16T05:43:23;6.70;99.90
26107;DHT22;13866;50.748;12.630;2024-02-16T05:45:49;6.70;99.90
26107;DHT22;13866;50.748;12.630;2024-02-16T05:48:14;6.70;99.90
26107;DHT22;13866;50.748;12.630;2024-02-16T05:50:40;6.60;99.90
26107;DHT22;13866;50.748;12.630;2024-02-16T05:53:06;6.70;99.90
26107;DHT22;13866;50.748;12.630;2024-02-16T05:55:32;6.70;99.90
26107;DHT22;13866;50.748;12.630;2024-02-16T05:57:57;6.60;99.90
26107;DHT22;13866;50.748;12.630;2024-02-16T06:00:23;6.60;99.90
26107;DHT22;13866;50.748;12.630;2024-02-16T06:02:48;6.60;99.90
26107;DHT22;13866;50.748;12.630;2024-02-16T06:05:14;6.60;99.90
26107;DHT22;13866;50.748;12.630;2024-02-16T06:07:40;6.50;99.90
26107;DHT22;13866;50.748;12.630;2024-02-16T06:10:06;6.50;99.90
26107;DHT22;13866;50.748;12.630;2024-02-16T06:12:38;6.50;99.90
26107;DHT22;13866;50.748;12.630;2024-02-16T06:15:05;6.50;99.90
26107;DHT22;13866;50.748;12.630;2024-02-16T06:17:30;6.50;99.90
26107;DHT22;13866;50.748;12.630;2024-02-16T06:19:56;6.60;99.90
26107;DHT22;13866;50.748;12.630;2024-02-16T06:22:21;6.60;99.90
26107;DHT22;13866;50.748;12.630;2024-02-16T06:24:47;6.60;99.90
26107;DHT22;13866;50.748;12.630;2024-02-16T06:27:13;6.60;99.90
26107;DHT22;13866;50.748;12.630;2024-02-16T06:29:38;6.50;99.90
26107;DHT22;13866;50.748;12.630;2024-02-16T06:32:04;6.50;99.90
26107;DHT22;13866;50.748;12.630;2024-02-16T06:34:30;6.50;99.90
26107;DHT22;13866;50.748;12.630;2024-02-16T06:36:56;6.70;99.90
26107;DHT22;13866;50.748;12.630;2024-02-16T06:39:21;6.70;99.90
26107;DHT22;13866;50.748;12.630;2024-02-16T06:41:47;6.80;99.90
26107;DHT22;13866;50.748;12.630;2024-02-16T06:44:15;6.80;99.90
26107;DHT22;13866;50.748;12.630;2024-02-16T06:46:44;6.80;99.90
26107;DHT22;13866;50.748;12.630;2024-02-16T06:49:09;6.80;99.90
26107;DHT22;13866;50.748;12.630;2024-02-16T06:51:36;6.80;99.90
26107;DHT22;13866;50.748;12.630;2024-02-16T06:54:02;6.80;99.90
26107;DHT22;13866;50.748;12.630;2024-02-16T06:56:28;6.80;99.90
26107;DHT22;13866;50.748;12.630;2024-02-16T06:58:53;6.90;99.90
26107;DHT22;13866;50.748;12.630;2024-02-16T07:01:19;6.90;99.90
26107;DHT22;13866;50.748;12.630;2024-02-16T07:03:45;7.10;99.90
26107;DHT22;13866;50.748;12.630;2024-02-16T07:06:10;7.20;99.90
26107;DHT22;13866;50.748;12.630;2024-02-16T07:08:42;7.30;99.90
26107;DHT22;13866;50.748;12.630;2024-02-16T07:11:09;7.30;77.10
26107;DHT22;13866;50.748;12.630;2024-02-16T07:13:37;7.30;97.80
26107;DHT22;13866;50.748;12.630;2024-02-16T07:16:03;7.30;99.90
26107;DHT22;13866;50.748;12.630;2024-02-16T07:18:30;7.30;99.90
26107;DHT22;13866;50.748;12.630;2024-02-16T07:20:56;7.40;99.90
26107;DHT22;13866;50.748;12.630;2024-02-16T07:23:22;7.40;99.90
26107;DHT22;13866;50.748;12.630;2024-02-16T07:25:47;7.40;99.90
26107;DHT22;13866;50.748;12.630;2024-02-16T07:28:14;7.40;99.90
26107;DHT22;13866;50.748;12.630;2024-02-16T07:30:40;7.40;99.90
26107;DHT22;13866;50.748;12.630;2024-02-16T07:33:06;7.50;99.90
26107;DHT22;13866;50.748;12.630;2024-02-16T07:35:32;7.50;99.90
26107;DHT22;13866;50.748;12.630;2024-02-16T07:37:58;7.50;99.90
26107;DHT22;13866;50.748;12.630;2024-02-16T07:40:24;7.60;99.90
26107;DHT22;13866;50.748;12.630;2024-02-16T07:42:49;7.60;99.90
26107;DHT22;13866;50.748;12.630;2024-02-16T07:45:15;7.70;99.90
26107;DHT22;13866;50.748;12.630;2024-02-16T07:47:41;7.70;99.90
26107;DHT22;13866;50.748;12.630;2024-02-16T07:50:07;7.80;99.90
26107;DHT22;13866;50.748;12.630;2024-02-16T07:52:33;7.90;59.90
26107;DHT22;13866;50.748;12.630;2024-02-16T07:54:58;8.10;5.50
26107;DHT22;13866;50.748;12.630;2024-02-16T07:57:24;8.20;1.00
26107;DHT22;13866;50.748;12.630;2024-02-16T07:59:50;8.30;1.00
26107;DHT22;13866;50.748;12.630;2024-02-16T08:02:15;8.40;1.00
26107;DHT22;13866;50.748;12.630;2024-02-16T08:04:46;8.60;1.00
26107;DHT22;13866;50.748;12.630;2024-02-16T08:07:12;8.70;1.00
26107;DHT22;13866;50.748;12.630;2024-02-16T08:09:37;8.90;1.00
26107;DHT22;13866;50.748;12.630;2024-02-16T08:12:03;8.90;1.00
26107;DHT22;13866;50.748;12.630;2024-02-16T08:14:33;9.00;1.00
26107;DHT22;13866;50.748;12.630;2024-02-16T08:16:59;9.10;1.00
26107;DHT22;13866;50.748;12.630;2024-02-16T08:19:36;9.20;1.00
26107;DHT22;13866;50.748;12.630;2024-02-16T08:22:08;9.30;1.00
26107;DHT22;13866;50.748;12.630;2024-02-16T08:24:37;9.30;1.00
26107;DHT22;13866;50.748;12.630;2024-02-16T08:27:03;9.40;1.00
26107;DHT22;13866;50.748;12.630;2024-02-16T08:29:29;9.50;1.00
26107;DHT22;13866;50.748;12.630;2024-02-16T08:31:55;9.70;1.00
26107;DHT22;13866;50.748;12.630;2024-02-16T08:34:21;9.90;1.00
26107;DHT22;13866;50.748;12.630;2024-02-16T08:36:47;10.00;1.00
26107;DHT22;13866;50.748;12.630;2024-02-16T08:39:14;10.10;1.00
26107;DHT22;13866;50.748;12.630;2024-02-16T08:41:39;10.20;1.00
26107;DHT22;13866;50.748;12.630;2024-02-16T08:44:06;10.30;99.90
26107;DHT22;13866;50.748;12.630;2024-02-16T08:46:39;10.30;99.90
26107;DHT22;13866;50.748;12.630;2024-02-16T08:49:07;10.30;1.00
26107;DHT22;13866;50.748;12.630;2024-02-16T08:51:34;10.40;1.00
26107;DHT22;13866;50.748;12.630;2024-02-16T08:54:00;10.40;1.00
26107;DHT22;13866;50.748;12.630;2024-02-16T08:56:27;10.40;1.00
26107;DHT22;13866;50.748;12.630;2024-02-16T08:58:52;10.50;1.00
26107;DHT22;13866;50.748;12.630;2024-02-16T09:01:18;10.50;99.90
26107;DHT22;13866;50.748;12.630;2024-02-16T09:03:43;10.60;1.00
26107;DHT22;13866;50.748;12.630;2024-02-16T09:06:09;10.60;1.00
26107;DHT22;13866;50.748;12.630;2024-02-16T09:08:34;10.60;99.90
26107;DHT22;13866;50.748;12.630;2024-02-16T09:11:04;10.70;99.90
26107;DHT22;13866;50.748;12.630;2024-02-16T09:13:39;10.80;1.00
26107;DHT22;13866;50.748;12.630;2024-02-16T09:16:04;10.80;1.00
26107;DHT22;13866;50.748;12.630;2024-02-16T09:18:30;10.90;99.90
26107;DHT22;13866;50.748;12.630;2024-02-16T09:20:55;11.00;1.00
26107;DHT22;13866;50.748;12.630;2024-02-16T09:23:21;11.10;1.00
26107;DHT22;13866;50.748;12.630;2024-02-16T09:25:46;11.20;11.40
26107;DHT22;13866;50.748;12.630;2024-02-16T09:28:12;11.20;99.90
26107;DHT22;13866;50.748;12.630;2024-02-16T09:30:38;11.30;79.80
26107;DHT22;13866;50.748;12.630;2024-02-16T09:33:04;11.30;1.00
26107;DHT22;13866;50.748;12.630;2024-02-16T09:35:30;11.40;1.00
26107;DHT22;13866;50.748;12.630;2024-02-16T09:37:56;11.50;1.00
26107;DHT22;13866;50.748;12.630;2024-02-16T09:40:22;11.60;1.00
26107;DHT22;13866;50.748;12.630;2024-02-16T09:42:48;11.60;1.00
26107;DHT22;13866;50.748;12.630;2024-02-16T09:45:16;11.60;1.00
26107;DHT22;13866;50.748;12.630;2024-02-16T09:47:46;11.60;1.00
26107;DHT22;13866;50.748;12.630;2024-02-16T09:50:15;11.60;1.00
26107;DHT22;13866;50.748;12.630;2024-02-16T09:52:41;11.60;1.00
26107;DHT22;13866;50.748;12.630;2024-02-16T09:55:13;11.70;99.90
26107;DHT22;13866;50.748;12.630;2024-02-16T09:57:38;11.70;1.00
26107;DHT22;13866;50.748;12.630;2024-02-16T10:00:04;11.80;1.00
26107;DHT22;13866;50.748;12.630;2024-02-16T10:02:43;11.80;99.90
26107;DHT22;13866;50.748;12.630;2024-02-16T10:05:14;11.80;99.90
26107;DHT22;13866;50.748;12.630;2024-02-16T10:07:40;12.00;99.90
26107;DHT22;13866;50.748;12.630;2024-02-16T10:10:06;12.10;99.90
26107;DHT22;13866;50.748;12.630;2024-02-16T10:12:32;12.50;99.90
26107;DHT22;13866;50.748;12.630;2024-02-16T10:14:57;12.90;99.90
26107;DHT22;13866;50.748;12.630;2024-02-16T10:17:25;13.20;99.90
26107;DHT22;13866;50.748;12.630;2024-02-16T10:19:57;13.40;85.80
26107;DHT22;13866;50.748;12.630;2024-02-16T10:22:23;13.50;89.30
26107;DHT22;13866;50.748;12.630;2024-02-16T10:24:48;13.70;65.40
26107;DHT22;13866;50.748;12.630;2024-02-16T10:27:18;13.90;45.20
26107;DHT22;13866;50.748;12.630;2024-02-16T10:29:45;14.20;43.20
26107;DHT22;13866;50.748;12.630;2024-02-16T10:32:12;14.40;28.90
26107;DHT22;13866;50.748;12.630;2024-02-16T10:34:40;14.60;29.20
26107;DHT22;13866;50.748;12.630;2024-02-16T10:37:06;14.90;7.10
26107;DHT22;13866;50.748;12.630;2024-02-16T10:39:32;15.10;1.00
26107;DHT22;13866;50.748;12.630;2024-02-16T10:42:00;15.20;1.00
26107;DHT22;13866;50.748;12.630;2024-02-16T10:44:28;15.40;1.00
26107;DHT22;13866;50.748;12.630;2024-02-16T10:46:55;15.30;1.00
26107;DHT22;13866;50.748;12.630;2024-02-16T10:49:23;15.50;1.00
26107;DHT22;13866;50.748;12.630;2024-02-16T10:51:52;15.80;1.00
26107;DHT22;13866;50.748;12.630;2024-02-16T10:54:23;15.90;1.00
26107;DHT22;13866;50.748;12.630;2024-02-16T10:56:53;16.00;1.00
26107;DHT22;13866;50.748;12.630;2024-02-16T10:59:19;16.20;1.00
26107;DHT22;13866;50.748;12.630;2024-02-16T11:01:45;16.30;1.00
26107;DHT22;13866;50.748;12.630;2024-02-16T11:04:16;16.20;1.00
26107;DHT22;13866;50.748;12.630;2024-02-16T11:06:51;16.00;1.00
26107;DHT22;13866;50.748;12.630;2024-02-16T11:09:30;15.90;1.00
26107;DHT22;13866;50.748;12.630;2024-02-16T11:12:01;15.90;1.00
26107;DHT22;13866;50.748;12.630;2024-02-16T11:17:07;15.80;1.00
26107;DHT22;13866;50.748;12.630;2024-02-16T11:19:33;15.70;1.00
26107;DHT22;13866;50.748;12.630;2024-02-16T11:22:02;15.50;1.00
26107;DHT22;13866;50.748;12.630;2024-02-16T11:24:33;15.40;1.00
26107;DHT22;13866;50.748;12.630;2024-02-16T11:27:00;15.40;1.00
26107;DHT22;13866;50.748;12.630;2024-02-16T11:29:26;15.40;1.00
26107;DHT22;13866;50.748;12.630;2024-02-16T11:31:56;15.60;1.00
26107;DHT22;13866;50.748;12.630;2024-02-16T11:34:23;15.80;1.00
26107;DHT22;13866;50.748;12.630;2024-02-16T11:36:49;16.00;1.00
26107;DHT22;13866;50.748;12.630;2024-02-16T11:39:19;16.20;1.00
26107;DHT22;13866;50.748;12.630;2024-02-16T11:41:45;16.50;1.00
26107;DHT22;13866;50.748;12.630;2024-02-16T11:44:13;16.70;1.00
26107;DHT22;13866;50.748;12.630;2024-02-16T11:46:38;16.80;1.00
26107;DHT22;13866;50.748;12.630;2024-02-16T11:49:08;17.00;1.00
26107;DHT22;13866;50.748;12.630;2024-02-16T11:51:33;17.10;1.00
26107;DHT22;13866;50.748;12.630;2024-02-16T11:53:59;17.20;1.00
26107;DHT22;13866;50.748;12.630;2024-02-16T11:56:25;17.20;1.00
26107;DHT22;13866;50.748;12.630;2024-02-16T11:58:52;17.30;1.00
26107;DHT22;13866;50.748;12.630;2024-02-16T12:01:17;17.40;1.00
26107;DHT22;13866;50.748;12.630;2024-02-16T12:03:43;17.60;1.00
26107;DHT22;13866;50.748;12.630;2024-02-16T12:06:08;17.50;1.00
26107;DHT22;13866;50.748;12.630;2024-02-16T12:08:35;17.30;1.00
26107;DHT22;13866;50.748;12.630;2024-02-16T12:11:02;17.20;1.00
26107;DHT22;13866;50.748;12.630;2024-02-16T12:13:27;17.10;1.00
26107;DHT22;13866;50.748;12.630;2024-02-16T12:15:53;17.10;1.00
26107;DHT22;13866;50.748;12.630;2024-02-16T12:18:25;17.00;1.00
26107;DHT22;13866;50.748;12.630;2024-02-16T12:21:05;16.90;1.00
26107;DHT22;13866;50.748;12.630;2024-02-16T12:23:36;16.90;1.00
26107;DHT22;13866;50.748;12.630;2024-02-16T12:26:02;16.80;1.00
26107;DHT22;13866;50.748;12.630;2024-02-16T12:28:30;16.80;1.00
26107;DHT22;13866;50.748;12.630;2024-02-16T12:30:59;16.70;1.00
26107;DHT22;13866;50.748;12.630;2024-02-16T12:33:25;16.80;1.00
26107;DHT22;13866;50.748;12.630;2024-02-16T12:35:51;16.90;1.00
26107;DHT22;13866;50.748;12.630;2024-02-16T12:38:17;16.90;1.00
26107;DHT22;13866;50.748;12.630;2024-02-16T12:40:45;17.10;1.00
26107;DHT22;13866;50.748;12.630;2024-02-16T12:43:10;17.20;1.00
26107;DHT22;13866;50.748;12.630;2024-02-16T12:45:37;17.10;1.00
26107;DHT22;13866;50.748;12.630;2024-02-16T12:48:03;17.20;1.00
26107;DHT22;13866;50.748;12.630;2024-02-16T12:50:29;17.20;1.00
26107;DHT22;13866;50.748;12.630;2024-02-16T12:52:55;17.30;1.00
26107;DHT22;13866;50.748;12.630;2024-02-16T12:55:20;17.30;1.00
26107;DHT22;13866;50.748;12.630;2024-02-16T12:57:46;17.20;1.00
26107;DHT22;13866;50.748;12.630;2024-02-16T13:00:12;17.10;1.00
26107;DHT22;13866;50.748;12.630;2024-02-16T13:02:38;16.90;1.00
26107;DHT22;13866;50.748;12.630;2024-02-16T13:05:04;16.80;1.00
26107;DHT22;13866;50.748;12.630;2024-02-16T13:07:29;16.70;1.00
26107;DHT22;13866;50.748;12.630;2024-02-16T13:09:55;16.60;1.00
26107;DHT22;13866;50.748;12.630;2024-02-16T13:12:20;16.60;1.00
26107;DHT22;13866;50.748;12.630;2024-02-16T13:14:49;16.50;1.00
26107;DHT22;13866;50.748;12.630;2024-02-16T13:17:14;16.30;1.00
26107;DHT22;13866;50.748;12.630;2024-02-16T13:19:40;16.20;1.00
26107;DHT22;13866;50.748;12.630;2024-02-16T13:22:05;16.20;1.00
26107;DHT22;13866;50.748;12.630;2024-02-16T13:24:31;16.20;1.00
26107;DHT22;13866;50.748;12.630;2024-02-16T13:26:56;16.10;1.00
26107;DHT22;13866;50.748;12.630;2024-02-16T13:29:22;16.10;1.00
26107;DHT22;13866;50.748;12.630;2024-02-16T13:31:47;16.10;1.00
26107;DHT22;13866;50.748;12.630;2024-02-16T13:34:13;16.10;1.00
26107;DHT22;13866;50.748;12.630;2024-02-16T13:36:40;16.00;1.00
26107;DHT22;13866;50.748;12.630;2024-02-16T13:39:06;16.00;1.00
26107;DHT22;13866;50.748;12.630;2024-02-16T13:41:33;16.00;1.00
26107;DHT22;13866;50.748;12.630;2024-02-16T13:43:58;15.90;1.00
26107;DHT22;13866;50.748;12.630;2024-02-16T13:46:24;15.80;1.00
26107;DHT22;13866;50.748;12.630;2024-02-16T13:48:49;15.80;1.00
26107;DHT22;13866;50.748;12.630;2024-02-16T13:51:14;15.80;1.00
26107;DHT22;13866;50.748;12.630;2024-02-16T13:53:40;15.80;1.00
26107;DHT22;13866;50.748;12.630;2024-02-16T13:56:06;15.70;1.00
26107;DHT22;13866;50.748;12.630;2024-02-16T13:58:31;15.70;1.00
26107;DHT22;13866;50.748;12.630;2024-02-16T14:00:58;15.70;1.00
26107;DHT22;13866;50.748;12.630;2024-02-16T14:03:24;15.70;1.00
26107;DHT22;13866;50.748;12.630;2024-02-16T14:05:50;15.60;1.00
26107;DHT22;13866;50.748;12.630;2024-02-16T14:08:17;15.60;1.00
26107;DHT22;13866;50.748;12.630;2024-02-16T14:10:42;15.60;1.00
26107;DHT22;13866;50.748;12.630;2024-02-16T14:13:08;15.50;1.00
26107;DHT22;13866;50.748;12.630;2024-02-16T14:15:34;15.50;1.00
26107;DHT22;13866;50.748;12.630;2024-02-16T14:18:00;15.50;1.00
26107;DHT22;13866;50.748;12.630;2024-02-16T14:20:25;15.40;1.00
26107;DHT22;13866;50.748;12.630;2024-02-16T14:22:51;15.40;1.00
26107;DHT22;13866;50.748;12.630;2024-02-16T14:25:16;15.40;1.00
26107;DHT22;13866;50.748;12.630;2024-02-16T14:27:43;15.30;1.00
26107;DHT22;13866;50.748;12.630;2024-02-16T14:30:13;15.30;1.00
26107;DHT22;13866;50.748;12.630;2024-02-16T14:32:39;15.30;1.00
26107;DHT22;13866;50.748;12.630;2024-02-16T14:35:05;15.20;1.00
26107;DHT22;13866;50.748;12.630;2024-02-16T14:37:31;15.20;1.00
26107;DHT22;13866;50.748;12.630;2024-02-16T14:39:57;15.10;1.00
26107;DHT22;13866;50.748;12.630;2024-02-16T14:42:24;15.00;1.00
26107;DHT22;13866;50.748;12.630;2024-02-16T14:44:50;15.00;1.00
26107;DHT22;13866;50.748;12.630;2024-02-16T14:47:16;14.90;1.00
26107;DHT22;13866;50.748;12.630;2024-02-16T14:49:42;14.90;1.00
26107;DHT22;13866;50.748;12.630;2024-02-16T14:52:07;14.90;1.00
26107;DHT22;13866;50.748;12.630;2024-02-16T14:54:34;14.80;1.00
26107;DHT22;13866;50.748;12.630;2024-02-16T14:57:00;14.70;1.00
26107;DHT22;13866;50.748;12.630;2024-02-16T14:59:26;14.60;1.00
26107;DHT22;13866;50.748;12.630;2024-02-16T15:01:52;14.60;1.00
26107;DHT22;13866;50.748;12.630;2024-02-16T15:04:17;14.50;1.00
26107;DHT22;13866;50.748;12.630;2024-02-16T15:06:43;14.50;1.00
26107;DHT22;13866;50.748;12.630;2024-02-16T15:09:09;14.40;1.00
26107;DHT22;13866;50.748;12.630;2024-02-16T15:11:35;14.30;1.00
26107;DHT22;13866;50.748;12.630;2024-02-16T15:14:01;14.30;1.00
26107;DHT22;13866;50.748;12.630;2024-02-16T15:16:27;14.20;1.00
26107;DHT22;13866;50.748;12.630;2024-02-16T15:18:52;14.10;1.00
26107;DHT22;13866;50.748;12.630;2024-02-16T15:21:18;14.10;1.00
26107;DHT22;13866;50.748;12.630;2024-02-16T15:23:44;14.10;1.00
26107;DHT22;13866;50.748;12.630;2024-02-16T15:26:11;14.00;1.00
26107;DHT22;13866;50.748;12.630;2024-02-16T15:28:36;14.00;1.00